createdAt,value
2019-01-23T00:00:16.151Z,29.03
2019-01-23T00:02:44.920Z,28.93
2019-01-23T00:05:13.682Z,28.43
2019-01-23T00:07:42.350Z,29.60
2019-01-23T00:10:11.206Z,29.53
2019-01-23T00:12:39.830Z,29.70
2019-01-23T00:15:08.636Z,29.30
2019-01-23T00:17:37.325Z,29.40
2019-01-23T00:20:08.152Z,29.93
2019-01-23T00:22:36.789Z,29.47
2019-01-23T00:25:08.486Z,29.10
2019-01-23T00:27:37.184Z,29.27
2019-01-23T00:30:14.032Z,28.37
2019-01-23T00:32:42.736Z,28.97
2019-01-23T00:35:11.584Z,28.00
2019-01-23T00:37:40.337Z,28.70
2019-01-23T00:40:12.242Z,29.23
2019-01-23T00:42:40.933Z,28.33
2019-01-23T00:45:12.475Z,30.00
2019-01-23T00:47:41.163Z,28.27
2019-01-23T00:50:11.208Z,28.60
2019-01-23T00:52:39.881Z,28.97
2019-01-23T00:55:11.715Z,28.63
2019-01-23T00:57:40.374Z,28.27
2019-01-23T01:00:18.176Z,28.83
2019-01-23T01:02:47.244Z,28.70
2019-01-23T01:05:17.174Z,29.90
2019-01-23T01:07:45.969Z,28.13
2019-01-23T01:10:17.702Z,29.07
2019-01-23T01:12:46.561Z,29.40
2019-01-23T01:15:15.694Z,30.10
2019-01-23T01:17:44.461Z,28.73
2019-01-23T01:20:16.746Z,29.07
2019-01-23T01:22:45.537Z,27.90
2019-01-23T01:25:16.726Z,30.10
2019-01-23T01:27:45.458Z,28.53
2019-01-23T01:30:17.124Z,28.43
2019-01-23T01:32:45.920Z,28.67
2019-01-23T01:35:14.752Z,30.27
2019-01-23T01:37:43.544Z,27.87
2019-01-23T01:40:14.567Z,29.07
2019-01-23T01:42:43.360Z,28.20
2019-01-23T01:45:13.608Z,28.60
2019-01-23T01:47:42.357Z,28.50
2019-01-23T01:50:16.862Z,30.50
2019-01-23T01:52:45.588Z,29.73
2019-01-23T01:55:14.463Z,29.00
2019-01-23T01:57:43.124Z,29.53
2019-01-23T02:00:16.820Z,28.97
2019-01-23T02:02:45.539Z,30.27
2019-01-23T02:05:14.510Z,30.00
2019-01-23T02:07:43.238Z,30.13
2019-01-23T02:10:17.319Z,30.63
2019-01-23T02:12:46.051Z,29.43
2019-01-23T02:15:15.835Z,28.77
2019-01-23T02:17:44.561Z,30.03
2019-01-23T02:20:18.561Z,28.97
2019-01-23T02:22:47.330Z,30.37
2019-01-23T02:25:16.133Z,28.70
2019-01-23T02:27:46.025Z,30.60
2019-01-23T02:30:19.752Z,29.33
2019-01-23T02:32:48.478Z,29.17
2019-01-23T02:35:17.247Z,28.90
2019-01-23T02:37:45.858Z,29.27
2019-01-23T02:40:17.354Z,28.73
2019-01-23T02:42:46.119Z,29.33
2019-01-23T02:45:15.850Z,29.90
2019-01-23T02:47:44.624Z,30.10
2019-01-23T02:50:14.097Z,29.30
2019-01-23T02:52:42.868Z,29.43
2019-01-23T02:55:12.296Z,27.80
2019-01-23T02:57:41.084Z,28.97
2019-01-23T03:00:15.554Z,27.83
2019-01-23T03:02:44.722Z,29.07
2019-01-23T03:05:15.640Z,26.87
2019-01-23T03:07:44.424Z,28.27
2019-01-23T03:10:17.835Z,26.20
2019-01-23T03:12:46.666Z,28.87
2019-01-23T03:15:17.223Z,28.73
2019-01-23T03:17:45.926Z,27.27
2019-01-23T03:20:16.353Z,28.30
2019-01-23T03:22:45.126Z,27.27
2019-01-23T03:25:15.079Z,27.50
2019-01-23T03:27:43.834Z,27.80
2019-01-23T03:30:15.318Z,27.17
2019-01-23T03:32:44.048Z,26.57
2019-01-23T03:35:12.786Z,27.47
2019-01-23T03:37:41.475Z,26.10
2019-01-23T03:40:13.370Z,26.47
2019-01-23T03:42:41.955Z,27.20
2019-01-23T03:45:12.143Z,28.03
2019-01-23T03:47:40.870Z,26.80
2019-01-23T03:50:12.335Z,27.10
2019-01-23T03:52:41.121Z,28.83
2019-01-23T03:55:11.418Z,27.57
2019-01-23T03:57:40.188Z,28.03
2019-01-23T04:00:14.707Z,27.33
2019-01-23T04:02:43.521Z,27.77
2019-01-23T04:05:12.243Z,29.40
2019-01-23T04:07:40.894Z,27.83
2019-01-23T04:10:14.746Z,28.90
2019-01-23T04:12:43.476Z,28.50
2019-01-23T04:15:16.883Z,28.70
2019-01-23T04:17:45.598Z,28.17
2019-01-23T04:20:19.517Z,27.67
2019-01-23T04:22:48.265Z,28.30
2019-01-23T04:25:17.107Z,29.50
2019-01-23T04:27:45.737Z,27.53
2019-01-23T04:30:24.629Z,28.57
2019-01-23T04:32:53.343Z,28.47
2019-01-23T04:35:22.180Z,27.90
2019-01-23T04:37:50.990Z,29.53
2019-01-23T04:40:19.721Z,28.17
2019-01-23T04:42:48.490Z,29.43
2019-01-23T04:45:17.724Z,28.43
2019-01-23T04:47:46.458Z,30.10
2019-01-23T04:50:17.137Z,29.57
2019-01-23T04:52:59.937Z,30.23
2019-01-23T04:55:28.711Z,27.73
2019-01-23T04:57:57.427Z,27.23
2019-01-23T05:00:27.723Z,28.10
2019-01-23T05:02:56.441Z,26.93
2019-01-23T05:05:25.189Z,26.37
2019-01-23T05:07:53.992Z,27.20
2019-01-23T05:10:22.747Z,27.77
2019-01-23T05:12:51.518Z,26.97
2019-01-23T05:15:20.246Z,26.37
2019-01-23T05:17:49.008Z,27.73
2019-01-23T05:20:17.781Z,27.77
2019-01-23T05:22:46.495Z,27.90
2019-01-23T05:25:15.225Z,27.90
2019-01-23T05:27:43.993Z,26.83
2019-01-23T05:30:18.266Z,28.37
2019-01-23T05:32:46.926Z,28.40
2019-01-23T05:35:15.649Z,27.73
2019-01-23T05:37:44.337Z,28.67
2019-01-23T05:40:13.522Z,27.87
2019-01-23T05:42:42.215Z,29.10
2019-01-23T05:45:13.277Z,28.40
2019-01-23T05:47:42.012Z,27.97
2019-01-23T05:50:16.250Z,28.93
2019-01-23T05:52:44.897Z,29.90
2019-01-23T05:55:14.428Z,28.33
2019-01-23T05:57:43.198Z,29.60
2019-01-23T06:00:15.040Z,29.27
2019-01-23T06:02:43.775Z,28.00
2019-01-23T06:05:13.106Z,27.73
2019-01-23T06:07:41.737Z,28.27
2019-01-23T06:10:11.330Z,28.10
2019-01-23T06:12:40.129Z,27.53
2019-01-23T06:15:16.556Z,28.50
2019-01-23T06:17:45.254Z,28.93
2019-01-23T06:20:16.639Z,27.93
2019-01-23T06:22:45.480Z,28.33
2019-01-23T06:25:14.351Z,29.20
2019-01-23T06:27:43.109Z,28.67
2019-01-23T06:30:15.119Z,29.77
2019-01-23T06:32:43.788Z,28.73
2019-01-23T06:35:12.650Z,29.10
2019-01-23T06:37:41.404Z,28.57
2019-01-23T06:40:12.744Z,29.13
2019-01-23T06:42:41.448Z,29.40
2019-01-23T06:45:12.389Z,28.40
2019-01-23T06:47:41.247Z,31.53
2019-01-23T06:50:15.133Z,29.40
2019-01-23T06:52:43.785Z,31.17
2019-01-23T06:55:12.580Z,30.57
2019-01-23T06:57:41.185Z,29.80
2019-01-23T07:00:17.326Z,31.20
2019-01-23T07:02:46.372Z,30.70
2019-01-23T07:05:15.465Z,29.70
2019-01-23T07:07:44.130Z,32.47
2019-01-23T07:10:18.129Z,30.07
2019-01-23T07:12:47.751Z,31.63
2019-01-23T07:15:16.553Z,30.73
2019-01-23T07:17:45.290Z,30.93
2019-01-23T07:20:22.405Z,31.07
2019-01-23T07:22:50.994Z,30.40
2019-01-23T07:25:20.068Z,30.73
2019-01-23T07:27:48.761Z,31.10
2019-01-23T07:30:24.201Z,30.07
2019-01-23T07:32:50.756Z,29.70
2019-01-23T07:35:19.466Z,30.43
2019-01-23T07:37:48.140Z,30.40
2019-01-23T07:40:16.869Z,31.83
2019-01-23T07:42:45.592Z,30.00
2019-01-23T07:45:19.693Z,29.77
2019-01-23T07:47:48.409Z,29.77
2019-01-23T07:50:17.297Z,30.07
2019-01-23T07:52:46.658Z,30.97
2019-01-23T07:55:17.485Z,28.90
2019-01-23T07:57:46.275Z,28.77
2019-01-23T08:00:20.467Z,30.77
2019-01-23T08:02:49.228Z,28.93
2019-01-23T08:05:20.565Z,28.97
2019-01-23T08:07:49.343Z,29.60
2019-01-23T08:10:20.469Z,29.73
2019-01-23T08:12:49.294Z,29.73
2019-01-23T08:15:23.646Z,30.97
2019-01-23T08:17:52.337Z,29.07
2019-01-23T08:20:23.137Z,29.30
2019-01-23T08:22:51.831Z,30.10
2019-01-23T08:25:20.530Z,29.97
2019-01-23T08:27:49.189Z,29.57
2019-01-23T08:30:20.323Z,28.43
2019-01-23T08:32:49.087Z,27.87
2019-01-23T08:35:19.056Z,29.60
2019-01-23T08:37:47.820Z,29.23
2019-01-23T08:40:17.955Z,29.97
2019-01-23T08:42:46.741Z,28.57
2019-01-23T08:45:15.837Z,27.77
2019-01-23T08:47:44.615Z,27.27
2019-01-23T08:50:24.962Z,27.43
2019-01-23T08:52:53.624Z,26.47
2019-01-23T08:55:23.017Z,27.83
2019-01-23T08:57:51.773Z,26.67
2019-01-23T09:00:20.536Z,26.40
2019-01-23T09:02:49.167Z,26.90
2019-01-23T09:05:17.893Z,28.37
2019-01-23T09:07:46.656Z,26.40
2019-01-23T09:10:18.326Z,27.93
2019-01-23T09:12:46.942Z,26.70
2019-01-23T09:15:16.860Z,26.63
2019-01-23T09:17:45.636Z,26.20
2019-01-23T09:20:21.738Z,25.67
2019-01-23T09:22:50.535Z,26.90
2019-01-23T09:25:26.740Z,27.30
2019-01-23T09:27:55.531Z,26.03
2019-01-23T09:30:27.132Z,26.00
2019-01-23T09:33:07.638Z,26.00
2019-01-23T09:35:54.532Z,26.30
2019-01-23T09:38:38.434Z,26.70
2019-01-23T09:41:13.018Z,25.67
2019-01-23T09:43:59.859Z,26.30
2019-01-23T09:46:49.654Z,26.17
2019-01-23T09:49:27.360Z,25.87
2019-01-23T09:52:23.398Z,27.77
2019-01-23T09:54:52.043Z,26.50
2019-01-23T09:57:20.718Z,28.07
2019-01-23T09:59:49.480Z,28.73
2019-01-23T10:02:18.112Z,28.70
2019-01-23T10:04:46.723Z,28.13
2019-01-23T10:07:15.371Z,28.53
2019-01-23T10:09:43.985Z,28.50
2019-01-23T10:12:12.603Z,28.97
2019-01-23T10:14:41.387Z,26.23
2019-01-23T10:17:10.069Z,26.33
2019-01-23T10:19:38.662Z,28.80
2019-01-23T10:22:07.454Z,28.20
2019-01-23T10:24:36.256Z,27.87
2019-01-23T10:27:04.970Z,28.53
2019-01-23T10:29:33.674Z,27.90
2019-01-23T10:32:02.332Z,27.57
2019-01-23T10:34:32.393Z,28.50
2019-01-23T10:37:01.282Z,28.20
2019-01-23T10:39:29.930Z,26.63
2019-01-23T10:41:58.553Z,26.20
2019-01-23T10:44:27.208Z,26.10
2019-01-23T10:46:55.905Z,27.30
2019-01-23T10:49:24.557Z,26.93
2019-01-23T10:51:53.251Z,28.07
2019-01-23T10:54:21.905Z,27.50
2019-01-23T10:56:50.634Z,26.30
2019-01-23T10:59:19.334Z,27.13
2019-01-23T11:01:47.918Z,28.27
2019-01-23T11:04:16.597Z,27.53
2019-01-23T11:06:45.353Z,26.30
2019-01-23T11:09:14.194Z,27.63
2019-01-23T11:11:42.799Z,29.40
2019-01-23T11:14:11.527Z,26.73
2019-01-23T11:16:40.169Z,27.30
2019-01-23T11:19:08.858Z,26.63
2019-01-23T11:21:37.465Z,28.03
2019-01-23T11:24:06.247Z,26.07
2019-01-23T11:26:34.958Z,27.60
2019-01-23T11:29:03.717Z,27.37
2019-01-23T11:31:32.371Z,25.93
2019-01-23T11:34:01.084Z,27.33
2019-01-23T11:36:29.708Z,27.97
2019-01-23T11:38:58.364Z,27.03
2019-01-23T11:41:26.963Z,26.60
2019-01-23T11:43:55.583Z,27.43
2019-01-23T11:46:24.270Z,27.03
2019-01-23T11:48:53.003Z,26.27
2019-01-23T11:51:21.650Z,26.83
2019-01-23T11:53:50.318Z,28.13
2019-01-23T11:56:19.096Z,26.17
2019-01-23T11:58:47.685Z,25.57
2019-01-23T12:01:16.450Z,26.30
2019-01-23T12:03:45.069Z,26.43
2019-01-23T12:06:13.717Z,26.53
2019-01-23T12:08:42.419Z,25.83
2019-01-23T12:11:11.084Z,26.10
2019-01-23T12:13:39.861Z,26.80
2019-01-23T12:16:08.507Z,26.43
2019-01-23T12:18:37.215Z,27.37
2019-01-23T12:21:05.935Z,27.37
2019-01-23T12:23:34.616Z,26.57
2019-01-23T12:26:03.228Z,26.00
2019-01-23T12:28:31.920Z,26.00
2019-01-23T12:31:00.577Z,25.97
2019-01-23T12:33:29.287Z,26.77
2019-01-23T12:35:57.943Z,25.87
2019-01-23T12:38:26.514Z,26.33
2019-01-23T12:40:55.217Z,27.17
2019-01-23T12:43:23.980Z,26.73
2019-01-23T12:45:52.561Z,26.67
2019-01-23T12:48:21.326Z,27.13
2019-01-23T12:50:50.049Z,26.30
2019-01-23T12:53:18.682Z,27.03
2019-01-23T12:55:47.262Z,26.27
2019-01-23T12:58:15.975Z,25.67
2019-01-23T13:00:44.845Z,25.63
2019-01-23T13:03:13.610Z,27.33
2019-01-23T13:05:42.329Z,26.80
2019-01-23T13:08:11.122Z,26.30
2019-01-23T13:10:39.696Z,26.97
2019-01-23T13:13:08.449Z,26.43
2019-01-23T13:15:37.173Z,27.37
2019-01-23T13:18:05.967Z,25.73
2019-01-23T13:20:34.684Z,26.77
2019-01-23T13:23:03.325Z,26.40
2019-01-23T13:25:31.931Z,26.50
2019-01-23T13:28:02.086Z,25.27
2019-01-23T13:30:30.792Z,25.50
2019-01-23T13:32:59.532Z,25.30
2019-01-23T13:35:31.322Z,24.80
2019-01-23T13:38:00.379Z,26.53
2019-01-23T13:40:34.417Z,27.20
2019-01-23T13:43:03.664Z,24.07
2019-01-23T13:45:32.433Z,25.70
2019-01-23T13:48:01.685Z,25.63
2019-01-23T13:50:30.369Z,24.83
2019-01-23T13:52:59.236Z,25.30
2019-01-23T13:55:28.029Z,23.87
2019-01-23T13:57:56.739Z,25.07
2019-01-23T14:00:31.217Z,25.83
2019-01-23T14:03:00.046Z,24.57
2019-01-23T14:05:28.801Z,26.20
2019-01-23T14:07:57.565Z,25.20
2019-01-23T14:10:26.590Z,25.00
2019-01-23T14:12:55.733Z,25.37
2019-01-23T14:15:33.430Z,25.00
2019-01-23T14:18:02.257Z,26.07
2019-01-23T14:20:30.931Z,25.60
2019-01-23T14:22:59.804Z,24.90
2019-01-23T14:25:28.588Z,25.23
2019-01-23T14:27:57.204Z,25.57
2019-01-23T14:30:34.073Z,25.23
2019-01-23T14:33:02.818Z,25.13
2019-01-23T14:35:32.170Z,26.17
2019-01-23T14:38:01.106Z,25.47
2019-01-23T14:40:29.893Z,26.37
2019-01-23T14:42:58.719Z,27.13
2019-01-23T14:45:28.789Z,26.97
2019-01-23T14:47:57.609Z,26.03
2019-01-23T14:50:26.557Z,26.53
2019-01-23T14:52:55.489Z,27.00
2019-01-23T14:55:24.556Z,27.00
2019-01-23T14:57:53.348Z,25.90
2019-01-23T15:00:27.930Z,27.60
2019-01-23T15:02:57.093Z,25.57
2019-01-23T15:05:25.983Z,26.53
2019-01-23T15:07:54.806Z,27.00
2019-01-23T15:10:26.265Z,26.83
2019-01-23T15:12:55.497Z,26.07
2019-01-23T15:15:24.453Z,27.27
2019-01-23T15:17:53.780Z,26.40
2019-01-23T15:20:56.599Z,27.33
2019-01-23T15:23:25.266Z,26.53
2019-01-23T15:25:53.988Z,25.73
2019-01-23T15:28:22.777Z,25.97
2019-01-23T15:30:51.609Z,26.53
2019-01-23T15:33:20.331Z,26.90
2019-01-23T15:35:48.942Z,26.10
2019-01-23T15:38:17.827Z,26.80
2019-01-23T15:40:46.605Z,27.33
2019-01-23T15:43:15.318Z,26.30
2019-01-23T15:45:44.088Z,26.43
2019-01-23T15:48:13.107Z,26.17
2019-01-23T15:50:42.097Z,26.20
2019-01-23T15:53:11.537Z,26.37
2019-01-23T15:55:40.881Z,26.70
2019-01-23T15:58:10.233Z,25.67
2019-01-23T16:00:39.214Z,26.80
2019-01-23T16:03:08.321Z,25.47
2019-01-23T16:05:37.083Z,25.93
2019-01-23T16:08:06.025Z,26.90
2019-01-23T16:10:35.092Z,26.53
2019-01-23T16:13:03.847Z,25.93
2019-01-23T16:15:33.925Z,26.73
2019-01-23T16:18:02.856Z,25.07
2019-01-23T16:20:31.595Z,25.97
2019-01-23T16:23:00.459Z,25.80
2019-01-23T16:25:29.262Z,26.03
2019-01-23T16:27:57.920Z,25.93
2019-01-23T16:30:32.651Z,27.17
2019-01-23T16:33:01.401Z,27.37
2019-01-23T16:35:30.273Z,26.80
2019-01-23T16:37:59.114Z,26.13
2019-01-23T16:40:27.963Z,27.03
2019-01-23T16:42:56.766Z,26.57
2019-01-23T16:45:25.592Z,27.27
2019-01-23T16:47:54.819Z,26.00
2019-01-23T16:50:26.829Z,26.53
2019-01-23T16:52:56.338Z,25.10
2019-01-23T16:55:26.416Z,26.00
2019-01-23T16:57:56.466Z,26.57
2019-01-23T17:00:27.720Z,26.23
2019-01-23T17:02:57.474Z,26.83
2019-01-23T17:05:29.450Z,27.23
2019-01-23T17:08:00.086Z,28.10
2019-01-23T17:10:29.436Z,24.60
2019-01-23T17:12:58.554Z,26.73
2019-01-23T17:15:27.745Z,27.03
2019-01-23T17:17:56.538Z,27.93
2019-01-23T17:20:34.506Z,26.77
2019-01-23T17:23:03.420Z,27.23
2019-01-23T17:25:32.587Z,26.73
2019-01-23T17:28:02.721Z,26.10
2019-01-23T17:30:32.148Z,26.97
2019-01-23T17:33:01.417Z,26.43
2019-01-23T17:35:30.289Z,26.90
2019-01-23T17:37:59.593Z,27.37
2019-01-23T17:40:28.541Z,26.20
2019-01-23T17:42:57.640Z,25.57
2019-01-23T17:45:35.514Z,26.57
2019-01-23T17:48:06.227Z,27.60
2019-01-23T17:50:35.189Z,26.97
2019-01-23T17:53:04.171Z,26.40
2019-01-23T17:55:38.114Z,27.27
2019-01-23T17:58:09.490Z,26.83
2019-01-23T18:00:40.020Z,27.57
2019-01-23T18:03:12.523Z,26.83
2019-01-23T18:05:41.859Z,27.37
2019-01-23T18:08:11.305Z,26.90
2019-01-23T18:10:40.617Z,26.23
2019-01-23T18:13:10.066Z,27.63
2019-01-23T18:15:41.358Z,27.30
2019-01-23T18:18:12.880Z,27.53
2019-01-23T18:20:42.295Z,27.40
2019-01-23T18:23:11.769Z,27.83
2019-01-23T18:25:41.204Z,27.77
2019-01-23T18:28:10.571Z,26.27
2019-01-23T18:30:43.218Z,27.33
2019-01-23T18:33:15.610Z,27.23
2019-01-23T18:35:53.694Z,27.33
2019-01-23T18:38:41.329Z,26.43
2019-01-23T18:41:38.089Z,27.90
2019-01-23T18:44:28.719Z,27.90
2019-01-23T18:47:08.162Z,27.10
2019-01-23T18:49:57.117Z,26.70
2019-01-23T18:52:26.780Z,27.70
2019-01-23T18:54:56.667Z,25.70
2019-01-23T18:57:32.030Z,27.93
2019-01-23T19:00:01.709Z,28.47
2019-01-23T19:02:31.346Z,27.30
2019-01-23T19:05:01.340Z,27.97
2019-01-23T19:07:31.118Z,26.80
2019-01-23T19:10:01.085Z,27.13
2019-01-23T19:12:30.739Z,28.67
2019-01-23T19:15:00.337Z,27.53
2019-01-23T19:17:30.231Z,28.33
2019-01-23T19:19:59.957Z,28.00
2019-01-23T19:22:29.602Z,27.93
2019-01-23T19:24:59.074Z,28.67
2019-01-23T19:27:28.988Z,29.40
2019-01-23T19:29:58.828Z,29.30
2019-01-23T19:32:28.733Z,28.10
2019-01-23T19:34:58.659Z,27.27
2019-01-23T19:37:47.567Z,28.17
2019-01-23T19:40:17.933Z,30.37
2019-01-23T19:42:47.787Z,29.27
2019-01-23T19:45:19.760Z,33.07
2019-01-23T19:47:49.330Z,32.43
2019-01-23T19:50:18.968Z,30.60
2019-01-23T19:52:48.577Z,28.83
2019-01-23T19:55:18.702Z,28.93
2019-01-23T19:57:48.285Z,28.93
2019-01-23T20:00:20.417Z,28.87
2019-01-23T20:02:50.277Z,30.30
2019-01-23T20:05:23.113Z,31.37
2019-01-23T20:07:52.562Z,28.63
2019-01-23T20:10:24.198Z,29.87
2019-01-23T20:12:53.933Z,30.37
2019-01-23T20:15:23.636Z,28.00
2019-01-23T20:17:54.950Z,29.33
2019-01-23T20:20:24.608Z,28.40
2019-01-23T20:22:54.014Z,28.67
2019-01-23T20:25:26.125Z,28.07
2019-01-23T20:27:55.908Z,27.87
2019-01-23T20:30:34.155Z,27.83
2019-01-23T20:33:03.699Z,27.27
2019-01-23T20:35:33.054Z,30.07
2019-01-23T20:38:02.509Z,27.90
2019-01-23T20:40:31.762Z,29.87
2019-01-23T20:43:01.126Z,29.27
2019-01-23T20:45:30.765Z,29.50
2019-01-23T20:48:00.425Z,29.87
2019-01-23T20:50:31.325Z,28.60
2019-01-23T20:53:00.912Z,28.67
2019-01-23T20:55:30.329Z,29.60
2019-01-23T20:57:59.774Z,28.77
2019-01-23T21:00:31.413Z,27.77
2019-01-23T21:03:00.876Z,28.03
2019-01-23T21:05:30.422Z,30.70
2019-01-23T21:07:59.957Z,28.63
2019-01-23T21:10:29.413Z,29.80
2019-01-23T21:12:58.956Z,30.67
2019-01-23T21:15:30.199Z,29.23
2019-01-23T21:17:59.306Z,28.60
2019-01-23T21:20:29.788Z,29.73
2019-01-23T21:22:58.953Z,30.23
2019-01-23T21:25:28.341Z,28.93
2019-01-23T21:27:57.758Z,30.90
2019-01-23T21:30:28.277Z,29.17
2019-01-23T21:32:57.633Z,30.93
2019-01-23T21:35:27.181Z,30.00
2019-01-23T21:37:56.528Z,31.33
2019-01-23T21:40:30.587Z,31.20
2019-01-23T21:42:59.953Z,30.13
2019-01-23T21:45:29.933Z,30.00
2019-01-23T21:47:59.832Z,30.37
2019-01-23T21:50:28.849Z,29.33
2019-01-23T21:52:57.999Z,29.30
2019-01-23T21:55:27.023Z,29.50
2019-01-23T21:57:56.016Z,28.23
2019-01-23T22:00:30.968Z,30.57
2019-01-23T22:03:01.913Z,29.93
2019-01-23T22:05:30.977Z,29.00
2019-01-23T22:07:59.849Z,29.47
2019-01-23T22:10:28.558Z,30.10
2019-01-23T22:12:57.315Z,29.30
2019-01-23T22:15:28.709Z,31.20
2019-01-23T22:17:57.602Z,30.63
2019-01-23T22:20:26.950Z,30.03
2019-01-23T22:22:55.787Z,29.77
2019-01-23T22:25:25.818Z,32.03
2019-01-23T22:27:55.454Z,30.30
2019-01-23T22:30:26.747Z,30.23
2019-01-23T22:32:55.546Z,30.60
2019-01-23T22:35:24.383Z,28.93
2019-01-23T22:37:53.333Z,30.43
2019-01-23T22:40:22.369Z,30.20
2019-01-23T22:42:51.241Z,30.37
2019-01-23T22:45:21.952Z,29.70
2019-01-23T22:47:50.832Z,29.77
2019-01-23T22:50:27.487Z,29.60
2019-01-23T22:52:56.267Z,30.43
2019-01-23T22:55:25.146Z,29.90
2019-01-23T22:57:54.074Z,30.20
2019-01-23T23:00:50.758Z,31.47
2019-01-23T23:03:19.619Z,30.97
2019-01-23T23:05:48.331Z,31.67
2019-01-23T23:08:17.114Z,29.30
2019-01-23T23:10:45.856Z,31.67
2019-01-23T23:13:14.952Z,32.87
2019-01-23T23:15:44.017Z,31.10
2019-01-23T23:18:12.855Z,30.37
2019-01-23T23:20:41.648Z,30.93
2019-01-23T23:23:10.382Z,31.40
2019-01-23T23:25:39.117Z,30.67
2019-01-23T23:28:07.851Z,32.17
2019-01-23T23:30:36.626Z,31.83
2019-01-23T23:33:05.489Z,30.47
2019-01-23T23:35:34.261Z,31.30
2019-01-23T23:38:02.920Z,30.23
2019-01-23T23:40:31.620Z,30.93
2019-01-23T23:43:00.416Z,30.93
2019-01-23T23:45:29.186Z,31.00
2019-01-23T23:47:57.783Z,31.03
2019-01-23T23:50:26.436Z,31.57
2019-01-23T23:52:55.021Z,32.00
2019-01-23T23:55:23.689Z,31.80
2019-01-23T23:57:52.401Z,31.87
